sensor_id;sensor_type;location;lat;lon;timestamp;pressure;altitude;pressure_sealevel;temperature;humidity
829;BME280;396;52.558;13.188;2022-10-16T00:00:36;100615.47;;;16.08;100.00
829;BME280;396;52.558;13.188;2022-10-16T00:03:05;100620.50;;;16.18;100.00
829;BME280;396;52.558;13.188;2022-10-16T00:05:32;100623.22;;;16.18;100.00
829;BME280;396;52.558;13.188;2022-10-16T00:07:59;100621.63;;;16.17;100.00
829;BME280;396;52.558;13.188;2022-10-16T00:10:25;100615.03;;;16.18;100.00
829;BME280;396;52.558;13.188;2022-10-16T00:12:52;100631.19;;;16.23;100.00
829;BME280;396;52.558;13.188;2022-10-16T00:15:18;100631.91;;;16.32;100.00
829;BME280;396;52.558;13.188;2022-10-16T00:17:45;100629.28;;;16.36;100.00
829;BME280;396;52.558;13.188;2022-10-16T00:20:13;100629.88;;;16.42;100.00
829;BME280;396;52.558;13.188;2022-10-16T00:22:39;100635.94;;;16.47;100.00
829;BME280;396;52.558;13.188;2022-10-16T00:25:06;100637.66;;;16.52;100.00
829;BME280;396;52.558;13.188;2022-10-16T00:27:33;100637.75;;;16.55;100.00
829;BME280;396;52.558;13.188;2022-10-16T00:29:59;100643.69;;;16.57;100.00
829;BME280;396;52.558;13.188;2022-10-16T00:32:26;100652.03;;;16.61;100.00
829;BME280;396;52.558;13.188;2022-10-16T00:34:52;100661.13;;;16.53;100.00
829;BME280;396;52.558;13.188;2022-10-16T00:37:21;100648.59;;;16.52;100.00
829;BME280;396;52.558;13.188;2022-10-16T00:39:47;100649.03;;;16.54;100.00
829;BME280;396;52.558;13.188;2022-10-16T00:42:15;100648.59;;;16.52;100.00
829;BME280;396;52.558;13.188;2022-10-16T00:44:44;100644.22;;;16.51;100.00
829;BME280;396;52.558;13.188;2022-10-16T00:47:15;100636.38;;;16.49;100.00
829;BME280;396;52.558;13.188;2022-10-16T00:49:43;100642.31;;;16.51;100.00
829;BME280;396;52.558;13.188;2022-10-16T00:52:10;100649.25;;;16.49;100.00
829;BME280;396;52.558;13.188;2022-10-16T00:54:39;100652.44;;;16.51;100.00
829;BME280;396;52.558;13.188;2022-10-16T00:57:06;100670.22;;;16.45;100.00
829;BME280;396;52.558;13.188;2022-10-16T00:59:35;100664.16;;;16.39;100.00
829;BME280;396;52.558;13.188;2022-10-16T01:02:04;100663.16;;;16.44;100.00
829;BME280;396;52.558;13.188;2022-10-16T01:04:33;100671.47;;;16.47;100.00
829;BME280;396;52.558;13.188;2022-10-16T01:07:07;100665.19;;;16.47;100.00
829;BME280;396;52.558;13.188;2022-10-16T01:09:47;100665.19;;;16.47;100.00
829;BME280;396;52.558;13.188;2022-10-16T01:12:18;100661.78;;;16.50;100.00
829;BME280;396;52.558;13.188;2022-10-16T01:14:53;100672.41;;;16.51;100.00
829;BME280;396;52.558;13.188;2022-10-16T01:17:22;100674.66;;;16.49;100.00
829;BME280;396;52.558;13.188;2022-10-16T01:20:02;100673.06;;;16.48;100.00
829;BME280;396;52.558;13.188;2022-10-16T01:22:38;100671.34;;;16.44;100.00
829;BME280;396;52.558;13.188;2022-10-16T01:25:12;100670.34;;;16.48;100.00
829;BME280;396;52.558;13.188;2022-10-16T01:27:45;100675.47;;;16.50;100.00
829;BME280;396;52.558;13.188;2022-10-16T01:30:17;100679.00;;;16.50;100.00
829;BME280;396;52.558;13.188;2022-10-16T01:32:50;100684.13;;;16.52;100.00
829;BME280;396;52.558;13.188;2022-10-16T01:35:22;100683.22;;;16.48;100.00
829;BME280;396;52.558;13.188;2022-10-16T01:37:52;100686.75;;;16.48;100.00
829;BME280;396;52.558;13.188;2022-10-16T01:40:21;100690.81;;;16.42;100.00
829;BME280;396;52.558;13.188;2022-10-16T01:42:54;100688.44;;;16.40;100.00
829;BME280;396;52.558;13.188;2022-10-16T01:45:22;100676.69;;;16.40;100.00
829;BME280;396;52.558;13.188;2022-10-16T01:47:49;100674.84;;;16.32;100.00
829;BME280;396;52.558;13.188;2022-10-16T01:50:20;100682.25;;;16.31;100.00
829;BME280;396;52.558;13.188;2022-10-16T01:52:50;100684.19;;;16.31;100.00
829;BME280;396;52.558;13.188;2022-10-16T01:55:28;100695.22;;;16.22;100.00
829;BME280;396;52.558;13.188;2022-10-16T01:57:59;100696.47;;;16.25;100.00
829;BME280;396;52.558;13.188;2022-10-16T02:00:29;100699.31;;;16.28;100.00
829;BME280;396;52.558;13.188;2022-10-16T02:02:57;100708.44;;;16.32;100.00
829;BME280;396;52.558;13.188;2022-10-16T02:05:31;100717.34;;;16.29;100.00
829;BME280;396;52.558;13.188;2022-10-16T02:07:58;100708.53;;;16.24;100.00
829;BME280;396;52.558;13.188;2022-10-16T02:10:25;100710.03;;;16.21;100.00
829;BME280;396;52.558;13.188;2022-10-16T02:12:59;100715.63;;;16.25;100.00
829;BME280;396;52.558;13.188;2022-10-16T02:15:26;100727.00;;;16.27;100.00
829;BME280;396;52.558;13.188;2022-10-16T02:17:53;100735.19;;;16.27;100.00
829;BME280;396;52.558;13.188;2022-10-16T02:20:22;100734.75;;;16.25;100.00
829;BME280;396;52.558;13.188;2022-10-16T02:22:52;100729.28;;;16.25;100.00
829;BME280;396;52.558;13.188;2022-10-16T02:25:25;100721.31;;;16.32;100.00
829;BME280;396;52.558;13.188;2022-10-16T02:27:55;100720.19;;;16.33;100.00
829;BME280;396;52.558;13.188;2022-10-16T02:30:29;100726.78;;;16.32;100.00
829;BME280;396;52.558;13.188;2022-10-16T02:32:57;100735.34;;;16.30;100.00
829;BME280;396;52.558;13.188;2022-10-16T02:35:25;100742.25;;;16.28;100.00
829;BME280;396;52.558;13.188;2022-10-16T02:37:53;100739.06;;;16.26;100.00
829;BME280;396;52.558;13.188;2022-10-16T02:40:20;100732.81;;;16.25;100.00
829;BME280;396;52.558;13.188;2022-10-16T02:42:50;100737.00;;;16.23;100.00
829;BME280;396;52.558;13.188;2022-10-16T02:45:17;100740.41;;;16.20;100.00
829;BME280;396;52.558;13.188;2022-10-16T02:47:45;100731.41;;;16.19;100.00
829;BME280;396;52.558;13.188;2022-10-16T02:50:12;100743.34;;;16.14;100.00
829;BME280;396;52.558;13.188;2022-10-16T02:52:39;100745.94;;;16.11;100.00
829;BME280;396;52.558;13.188;2022-10-16T02:55:06;100732.47;;;16.06;100.00
829;BME280;396;52.558;13.188;2022-10-16T02:57:32;100728.59;;;16.07;100.00
829;BME280;396;52.558;13.188;2022-10-16T02:59:59;100734.41;;;16.05;100.00
829;BME280;396;52.558;13.188;2022-10-16T03:02:25;100738.63;;;16.03;100.00
829;BME280;396;52.558;13.188;2022-10-16T03:04:53;100745.28;;;15.93;100.00
829;BME280;396;52.558;13.188;2022-10-16T03:07:20;100740.81;;;15.88;100.00
829;BME280;396;52.558;13.188;2022-10-16T03:09:46;100748.06;;;15.84;100.00
829;BME280;396;52.558;13.188;2022-10-16T03:12:12;100749.59;;;15.73;100.00
829;BME280;396;52.558;13.188;2022-10-16T03:14:39;100752.34;;;15.73;100.00
829;BME280;396;52.558;13.188;2022-10-16T03:17:06;100749.47;;;15.70;100.00
829;BME280;396;52.558;13.188;2022-10-16T03:19:32;100757.19;;;15.68;100.00
829;BME280;396;52.558;13.188;2022-10-16T03:22:01;100759.63;;;15.60;100.00
829;BME280;396;52.558;13.188;2022-10-16T03:24:27;100762.88;;;15.54;100.00
829;BME280;396;52.558;13.188;2022-10-16T03:26:54;100758.38;;;15.49;100.00
829;BME280;396;52.558;13.188;2022-10-16T03:29:20;100760.25;;;15.36;100.00
829;BME280;396;52.558;13.188;2022-10-16T03:31:46;100766.69;;;15.32;100.00
829;BME280;396;52.558;13.188;2022-10-16T03:34:14;100769.25;;;15.28;100.00
829;BME280;396;52.558;13.188;2022-10-16T03:36:41;100766.84;;;15.27;100.00
829;BME280;396;52.558;13.188;2022-10-16T03:39:08;100770.91;;;15.21;100.00
829;BME280;396;52.558;13.188;2022-10-16T03:41:35;100780.22;;;15.20;100.00
829;BME280;396;52.558;13.188;2022-10-16T03:44:01;100784.38;;;15.17;100.00
829;BME280;396;52.558;13.188;2022-10-16T03:46:28;100790.97;;;15.16;100.00
829;BME280;396;52.558;13.188;2022-10-16T03:48:54;100783.78;;;15.11;100.00
829;BME280;396;52.558;13.188;2022-10-16T03:51:21;100791.81;;;15.08;100.00
829;BME280;396;52.558;13.188;2022-10-16T03:53:47;100795.66;;;15.07;100.00
829;BME280;396;52.558;13.188;2022-10-16T03:56:15;100801.59;;;15.09;100.00
829;BME280;396;52.558;13.188;2022-10-16T03:58:41;100795.81;;;15.10;100.00
829;BME280;396;52.558;13.188;2022-10-16T04:01:08;100794.69;;;15.11;100.00
829;BME280;396;52.558;13.188;2022-10-16T04:03:34;100806.41;;;15.12;100.00
829;BME280;396;52.558;13.188;2022-10-16T04:06:01;100813.00;;;15.11;100.00
829;BME280;396;52.558;13.188;2022-10-16T04:08:27;100804.81;;;15.11;100.00
829;BME280;396;52.558;13.188;2022-10-16T04:10:53;100809.75;;;15.09;100.00
829;BME280;396;52.558;13.188;2022-10-16T04:13:21;100811.25;;;15.06;100.00
829;BME280;396;52.558;13.188;2022-10-16T04:15:48;100811.09;;;15.03;100.00
829;BME280;396;52.558;13.188;2022-10-16T04:18:14;100806.25;;;15.00;100.00
829;BME280;396;52.558;13.188;2022-10-16T04:20:40;100801.94;;;14.99;100.00
829;BME280;396;52.558;13.188;2022-10-16T04:23:07;100805.00;;;14.97;100.00
829;BME280;396;52.558;13.188;2022-10-16T04:25:33;100802.59;;;14.96;100.00
829;BME280;396;52.558;13.188;2022-10-16T04:28:00;100801.47;;;14.97;100.00
829;BME280;396;52.558;13.188;2022-10-16T04:30:27;100794.75;;;14.94;100.00
829;BME280;396;52.558;13.188;2022-10-16T04:32:54;100783.81;;;14.94;100.00
829;BME280;396;52.558;13.188;2022-10-16T04:35:21;100793.13;;;14.93;100.00
829;BME280;396;52.558;13.188;2022-10-16T04:37:47;100794.13;;;14.88;100.00
829;BME280;396;52.558;13.188;2022-10-16T04:40:14;100791.38;;;14.88;100.00
829;BME280;396;52.558;13.188;2022-10-16T04:42:40;100788.16;;;14.86;100.00
829;BME280;396;52.558;13.188;2022-10-16T04:45:07;100790.63;;;14.79;100.00
829;BME280;396;52.558;13.188;2022-10-16T04:47:36;100788.69;;;14.71;100.00
829;BME280;396;52.558;13.188;2022-10-16T04:50:03;100779.06;;;14.65;100.00
829;BME280;396;52.558;13.188;2022-10-16T04:52:29;100786.78;;;14.63;100.00
829;BME280;396;52.558;13.188;2022-10-16T04:54:56;100783.25;;;14.62;100.00
829;BME280;396;52.558;13.188;2022-10-16T04:57:26;100794.00;;;14.59;100.00
829;BME280;396;52.558;13.188;2022-10-16T04:59:53;100797.84;;;14.58;100.00
829;BME280;396;52.558;13.188;2022-10-16T05:02:19;100806.03;;;14.58;100.00
829;BME280;396;52.558;13.188;2022-10-16T05:04:47;100813.72;;;14.56;100.00
829;BME280;396;52.558;13.188;2022-10-16T05:07:13;100815.03;;;14.50;100.00
829;BME280;396;52.558;13.188;2022-10-16T05:09:40;100805.06;;;14.45;100.00
829;BME280;396;52.558;13.188;2022-10-16T05:12:07;100820.91;;;14.43;100.00
829;BME280;396;52.558;13.188;2022-10-16T05:14:33;100821.72;;;14.44;100.00
829;BME280;396;52.558;13.188;2022-10-16T05:17:00;100818.50;;;14.42;100.00
829;BME280;396;52.558;13.188;2022-10-16T05:19:26;100820.59;;;14.45;100.00
829;BME280;396;52.558;13.188;2022-10-16T05:21:54;100811.28;;;14.46;100.00
829;BME280;396;52.558;13.188;2022-10-16T05:24:20;100815.16;;;14.45;100.00
829;BME280;396;52.558;13.188;2022-10-16T05:26:47;100824.31;;;14.49;100.00
829;BME280;396;52.558;13.188;2022-10-16T05:29:13;100826.72;;;14.50;100.00
829;BME280;396;52.558;13.188;2022-10-16T05:31:39;100830.03;;;14.47;100.00
829;BME280;396;52.558;13.188;2022-10-16T05:34:06;100829.78;;;14.49;100.00
829;BME280;396;52.558;13.188;2022-10-16T05:36:32;100846.28;;;14.52;100.00
829;BME280;396;52.558;13.188;2022-10-16T05:39:00;100849.50;;;14.54;100.00
829;BME280;396;52.558;13.188;2022-10-16T05:41:26;100846.44;;;14.56;100.00
829;BME280;396;52.558;13.188;2022-10-16T05:43:53;100838.41;;;14.59;100.00
829;BME280;396;52.558;13.188;2022-10-16T05:46:20;100837.44;;;14.64;100.00
829;BME280;396;52.558;13.188;2022-10-16T05:48:46;100844.19;;;14.67;100.00
829;BME280;396;52.558;13.188;2022-10-16T05:51:14;100832.31;;;14.71;100.00
829;BME280;396;52.558;13.188;2022-10-16T05:53:40;100842.59;;;14.74;100.00
829;BME280;396;52.558;13.188;2022-10-16T05:56:10;100844.34;;;14.79;100.00
829;BME280;396;52.558;13.188;2022-10-16T05:58:38;100850.44;;;14.84;100.00
829;BME280;396;52.558;13.188;2022-10-16T06:01:07;100850.09;;;14.86;100.00
829;BME280;396;52.558;13.188;2022-10-16T06:03:34;100846.25;;;14.87;100.00
829;BME280;396;52.558;13.188;2022-10-16T06:06:07;100846.91;;;14.93;100.00
829;BME280;396;52.558;13.188;2022-10-16T06:08:34;100854.41;;;14.96;100.00
829;BME280;396;52.558;13.188;2022-10-16T06:11:01;100850.41;;;15.02;100.00
829;BME280;396;52.558;13.188;2022-10-16T06:13:29;100849.09;;;15.08;100.00
829;BME280;396;52.558;13.188;2022-10-16T06:16:00;100843.97;;;15.15;100.00
829;BME280;396;52.558;13.188;2022-10-16T06:18:27;100844.56;;;15.21;100.00
829;BME280;396;52.558;13.188;2022-10-16T06:20:54;100871.03;;;15.29;100.00
829;BME280;396;52.558;13.188;2022-10-16T06:23:21;100865.41;;;15.34;100.00
829;BME280;396;52.558;13.188;2022-10-16T06:25:48;100866.34;;;15.38;100.00
829;BME280;396;52.558;13.188;2022-10-16T06:28:15;100875.50;;;15.42;100.00
829;BME280;396;52.558;13.188;2022-10-16T06:30:43;100878.69;;;15.44;100.00
829;BME280;396;52.558;13.188;2022-10-16T06:33:15;100882.09;;;15.41;100.00
829;BME280;396;52.558;13.188;2022-10-16T06:35:42;100885.63;;;15.42;100.00
829;BME280;396;52.558;13.188;2022-10-16T06:38:08;100894.09;;;15.49;100.00
829;BME280;396;52.558;13.188;2022-10-16T06:40:35;100902.59;;;15.56;100.00
829;BME280;396;52.558;13.188;2022-10-16T06:43:01;100906.72;;;15.62;100.00
829;BME280;396;52.558;13.188;2022-10-16T06:45:28;100913.81;;;15.63;100.00
829;BME280;396;52.558;13.188;2022-10-16T06:47:56;100908.66;;;15.70;100.00
829;BME280;396;52.558;13.188;2022-10-16T06:50:22;100901.22;;;15.79;100.00
829;BME280;396;52.558;13.188;2022-10-16T06:52:49;100900.78;;;15.77;100.00
829;BME280;396;52.558;13.188;2022-10-16T06:55:16;100909.25;;;15.84;100.00
829;BME280;396;52.558;13.188;2022-10-16T06:57:42;100906.47;;;15.93;100.00
829;BME280;396;52.558;13.188;2022-10-16T07:00:10;100921.72;;;16.03;100.00
829;BME280;396;52.558;13.188;2022-10-16T07:02:36;100928.38;;;16.14;100.00
829;BME280;396;52.558;13.188;2022-10-16T07:05:05;100929.47;;;16.22;100.00
829;BME280;396;52.558;13.188;2022-10-16T07:07:32;100938.09;;;16.32;100.00
829;BME280;396;52.558;13.188;2022-10-16T07:09:58;100938.56;;;16.34;100.00
829;BME280;396;52.558;13.188;2022-10-16T07:12:25;100944.63;;;16.40;100.00
829;BME280;396;52.558;13.188;2022-10-16T07:14:51;100942.06;;;16.44;100.00
829;BME280;396;52.558;13.188;2022-10-16T07:17:19;100939.78;;;16.46;100.00
829;BME280;396;52.558;13.188;2022-10-16T07:19:45;100933.78;;;16.52;100.00
829;BME280;396;52.558;13.188;2022-10-16T07:22:13;100934.84;;;16.60;100.00
829;BME280;396;52.558;13.188;2022-10-16T07:24:40;100931.78;;;16.61;100.00
829;BME280;396;52.558;13.188;2022-10-16T07:27:06;100933.19;;;16.68;100.00
829;BME280;396;52.558;13.188;2022-10-16T07:29:33;100938.78;;;16.71;100.00
829;BME280;396;52.558;13.188;2022-10-16T07:31:59;100927.69;;;16.76;100.00
829;BME280;396;52.558;13.188;2022-10-16T07:34:26;100939.56;;;16.80;100.00
829;BME280;396;52.558;13.188;2022-10-16T07:36:52;100947.56;;;16.85;100.00
829;BME280;396;52.558;13.188;2022-10-16T07:39:22;100945.75;;;16.89;100.00
829;BME280;396;52.558;13.188;2022-10-16T07:41:48;100954.09;;;16.93;100.00
829;BME280;396;52.558;13.188;2022-10-16T07:44:15;100945.69;;;16.98;100.00
829;BME280;396;52.558;13.188;2022-10-16T07:46:41;100948.06;;;17.00;100.00
829;BME280;396;52.558;13.188;2022-10-16T07:49:08;100941.94;;;17.03;100.00
829;BME280;396;52.558;13.188;2022-10-16T07:51:35;100944.22;;;17.01;100.00
829;BME280;396;52.558;13.188;2022-10-16T07:54:03;100955.84;;;16.98;100.00
829;BME280;396;52.558;13.188;2022-10-16T07:56:31;100966.78;;;16.98;100.00
829;BME280;396;52.558;13.188;2022-10-16T07:58:58;100967.22;;;17.00;100.00
829;BME280;396;52.558;13.188;2022-10-16T08:01:24;100973.19;;;17.02;100.00
829;BME280;396;52.558;13.188;2022-10-16T08:03:51;100986.88;;;17.02;100.00
829;BME280;396;52.558;13.188;2022-10-16T08:06:19;100991.69;;;17.05;100.00
829;BME280;396;52.558;13.188;2022-10-16T08:08:46;100990.53;;;17.06;100.00
829;BME280;396;52.558;13.188;2022-10-16T08:11:13;100983.72;;;17.12;100.00
829;BME280;396;52.558;13.188;2022-10-16T08:13:41;100982.41;;;17.18;100.00
829;BME280;396;52.558;13.188;2022-10-16T08:16:08;100973.03;;;17.19;100.00
829;BME280;396;52.558;13.188;2022-10-16T08:18:35;100976.72;;;17.23;100.00
829;BME280;396;52.558;13.188;2022-10-16T08:21:02;100977.84;;;17.22;100.00
829;BME280;396;52.558;13.188;2022-10-16T08:23:30;100991.66;;;17.26;100.00
829;BME280;396;52.558;13.188;2022-10-16T08:26:02;100990.63;;;17.30;100.00
829;BME280;396;52.558;13.188;2022-10-16T08:28:29;100993.84;;;17.32;100.00
829;BME280;396;52.558;13.188;2022-10-16T08:31:04;100989.31;;;17.36;100.00
829;BME280;396;52.558;13.188;2022-10-16T08:33:31;100993.91;;;17.45;100.00
829;BME280;396;52.558;13.188;2022-10-16T08:35:59;101001.44;;;17.48;100.00
829;BME280;396;52.558;13.188;2022-10-16T08:38:26;101000.53;;;17.56;100.00
829;BME280;396;52.558;13.188;2022-10-16T08:40:56;101001.13;;;17.61;99.76
829;BME280;396;52.558;13.188;2022-10-16T08:43:46;100995.09;;;17.68;99.53
829;BME280;396;52.558;13.188;2022-10-16T08:46:30;101004.72;;;17.74;98.47
829;BME280;396;52.558;13.188;2022-10-16T08:49:02;101007.94;;;17.76;98.62
829;BME280;396;52.558;13.188;2022-10-16T08:51:31;101009.66;;;17.81;98.28
829;BME280;396;52.558;13.188;2022-10-16T08:53:59;101003.97;;;17.86;98.29
829;BME280;396;52.558;13.188;2022-10-16T08:56:27;101009.34;;;17.95;98.23
829;BME280;396;52.558;13.188;2022-10-16T08:58:54;101016.81;;;18.06;97.88
829;BME280;396;52.558;13.188;2022-10-16T09:01:22;101024.44;;;18.13;96.95
829;BME280;396;52.558;13.188;2022-10-16T09:04:01;101020.78;;;18.09;97.29
829;BME280;396;52.558;13.188;2022-10-16T09:06:45;101018.28;;;18.16;96.33
829;BME280;396;52.558;13.188;2022-10-16T09:09:28;101023.06;;;18.19;96.54
829;BME280;396;52.558;13.188;2022-10-16T09:12:04;101034.84;;;18.32;96.33
829;BME280;396;52.558;13.188;2022-10-16T09:14:49;101037.59;;;18.44;95.06
829;BME280;396;52.558;13.188;2022-10-16T09:17:29;101029.25;;;18.40;95.38
829;BME280;396;52.558;13.188;2022-10-16T09:20:09;101026.88;;;18.51;95.12
829;BME280;396;52.558;13.188;2022-10-16T09:22:39;101024.00;;;18.60;94.01
829;BME280;396;52.558;13.188;2022-10-16T09:25:11;101033.81;;;18.61;93.48
829;BME280;396;52.558;13.188;2022-10-16T09:27:39;101039.66;;;18.59;93.07
829;BME280;396;52.558;13.188;2022-10-16T09:30:11;101033.81;;;18.61;93.77
829;BME280;396;52.558;13.188;2022-10-16T09:32:39;101035.78;;;18.60;94.09
829;BME280;396;52.558;13.188;2022-10-16T09:35:11;101034.75;;;18.65;92.31
829;BME280;396;52.558;13.188;2022-10-16T09:37:40;101036.94;;;18.59;92.85
829;BME280;396;52.558;13.188;2022-10-16T09:40:12;101055.91;;;18.52;92.86
829;BME280;396;52.558;13.188;2022-10-16T09:42:39;101051.44;;;18.48;93.27
829;BME280;396;52.558;13.188;2022-10-16T09:45:20;101051.19;;;18.53;93.66
829;BME280;396;52.558;13.188;2022-10-16T09:47:51;101054.50;;;18.58;93.61
829;BME280;396;52.558;13.188;2022-10-16T09:50:25;101063.09;;;18.81;92.67
829;BME280;396;52.558;13.188;2022-10-16T09:53:07;101070.28;;;18.98;92.22
829;BME280;396;52.558;13.188;2022-10-16T09:55:49;101069.78;;;19.21;90.86
829;BME280;396;52.558;13.188;2022-10-16T09:59:10;101069.75;;;19.33;90.47
829;BME280;396;52.558;13.188;2022-10-16T10:01:53;101074.38;;;19.57;88.52
829;BME280;396;52.558;13.188;2022-10-16T10:04:50;101074.13;;;19.62;87.30
829;BME280;396;52.558;13.188;2022-10-16T10:07:24;101083.84;;;19.59;86.76
829;BME280;396;52.558;13.188;2022-10-16T10:09:53;101078.22;;;19.68;87.01
829;BME280;396;52.558;13.188;2022-10-16T10:12:23;101089.47;;;19.63;88.01
829;BME280;396;52.558;13.188;2022-10-16T10:14:51;101087.16;;;19.65;87.05
829;BME280;396;52.558;13.188;2022-10-16T10:17:20;101081.66;;;19.65;85.75
829;BME280;396;52.558;13.188;2022-10-16T10:19:51;101081.78;;;19.56;86.21
829;BME280;396;52.558;13.188;2022-10-16T10:22:28;101083.19;;;19.50;85.56
829;BME280;396;52.558;13.188;2022-10-16T10:24:56;101097.19;;;19.45;86.70
829;BME280;396;52.558;13.188;2022-10-16T10:27:29;101104.16;;;19.42;86.93
829;BME280;396;52.558;13.188;2022-10-16T10:30:01;101103.47;;;19.46;86.72
829;BME280;396;52.558;13.188;2022-10-16T10:32:37;101113.31;;;19.47;86.41
829;BME280;396;52.558;13.188;2022-10-16T10:35:15;101112.97;;;19.48;85.96
829;BME280;396;52.558;13.188;2022-10-16T10:38:00;101122.47;;;19.63;86.28
829;BME280;396;52.558;13.188;2022-10-16T10:40:37;101121.25;;;19.76;84.53
829;BME280;396;52.558;13.188;2022-10-16T10:43:11;101106.50;;;19.97;84.28
829;BME280;396;52.558;13.188;2022-10-16T10:45:44;101109.16;;;20.09;83.02
829;BME280;396;52.558;13.188;2022-10-16T10:48:21;101111.69;;;20.30;80.93
829;BME280;396;52.558;13.188;2022-10-16T10:50:56;101104.00;;;20.51;79.89
829;BME280;396;52.558;13.188;2022-10-16T10:53:36;101106.66;;;20.63;78.93
829;BME280;396;52.558;13.188;2022-10-16T10:56:14;101101.13;;;20.79;79.33
829;BME280;396;52.558;13.188;2022-10-16T10:58:54;101105.56;;;20.84;78.20
829;BME280;396;52.558;13.188;2022-10-16T11:01:30;101113.25;;;20.59;77.83
829;BME280;396;52.558;13.188;2022-10-16T11:04:23;101116.69;;;20.56;77.40
829;BME280;396;52.558;13.188;2022-10-16T11:06:57;101109.88;;;20.50;76.65
829;BME280;396;52.558;13.188;2022-10-16T11:09:31;101111.47;;;20.51;76.70
829;BME280;396;52.558;13.188;2022-10-16T11:12:01;101111.41;;;20.35;75.85
829;BME280;396;52.558;13.188;2022-10-16T11:14:35;101111.94;;;20.40;77.75
829;BME280;396;52.558;13.188;2022-10-16T11:17:07;101111.09;;;20.36;75.52
829;BME280;396;52.558;13.188;2022-10-16T11:19:39;101109.94;;;20.37;75.43
829;BME280;396;52.558;13.188;2022-10-16T11:22:12;101108.56;;;20.31;76.61
829;BME280;396;52.558;13.188;2022-10-16T11:24:45;101107.50;;;20.36;75.75
829;BME280;396;52.558;13.188;2022-10-16T11:27:16;101107.38;;;20.60;74.09
829;BME280;396;52.558;13.188;2022-10-16T11:29:48;101107.31;;;20.92;71.50
829;BME280;396;52.558;13.188;2022-10-16T11:32:22;101122.72;;;21.86;70.98
829;BME280;396;52.558;13.188;2022-10-16T11:34:52;101126.81;;;23.37;64.21
829;BME280;396;52.558;13.188;2022-10-16T11:37:23;101118.56;;;23.71;58.82
829;BME280;396;52.558;13.188;2022-10-16T11:39:54;101125.88;;;24.27;56.76
829;BME280;396;52.558;13.188;2022-10-16T11:42:29;101137.00;;;24.79;57.31
829;BME280;396;52.558;13.188;2022-10-16T11:45:02;101134.25;;;25.45;52.45
829;BME280;396;52.558;13.188;2022-10-16T11:47:34;101130.81;;;25.73;49.79
829;BME280;396;52.558;13.188;2022-10-16T11:50:03;101142.41;;;25.96;49.40
829;BME280;396;52.558;13.188;2022-10-16T11:52:36;101144.47;;;26.31;47.58
829;BME280;396;52.558;13.188;2022-10-16T11:55:14;101139.34;;;26.62;47.52
829;BME280;396;52.558;13.188;2022-10-16T11:57:45;101148.81;;;27.18;46.16
829;BME280;396;52.558;13.188;2022-10-16T12:00:20;101152.31;;;27.44;46.00
829;BME280;396;52.558;13.188;2022-10-16T12:02:54;101144.06;;;28.10;45.60
829;BME280;396;52.558;13.188;2022-10-16T12:05:29;101151.72;;;29.03;42.39
829;BME280;396;52.558;13.188;2022-10-16T12:08:06;101149.41;;;28.94;42.38
829;BME280;396;52.558;13.188;2022-10-16T12:10:36;101160.13;;;28.99;41.46
829;BME280;396;52.558;13.188;2022-10-16T12:13:03;101173.91;;;28.69;41.37
829;BME280;396;52.558;13.188;2022-10-16T12:15:32;101164.72;;;28.75;41.27
829;BME280;396;52.558;13.188;2022-10-16T12:17:59;101168.13;;;29.35;41.23
829;BME280;396;52.558;13.188;2022-10-16T12:20:28;101165.47;;;29.62;39.83
829;BME280;396;52.558;13.188;2022-10-16T12:22:59;101162.44;;;29.46;40.75
829;BME280;396;52.558;13.188;2022-10-16T12:25:29;101182.84;;;29.73;40.07
829;BME280;396;52.558;13.188;2022-10-16T12:28:03;101176.69;;;29.17;41.14
829;BME280;396;52.558;13.188;2022-10-16T12:30:32;101179.22;;;29.42;40.98
829;BME280;396;52.558;13.188;2022-10-16T12:33:02;101176.97;;;29.26;40.21
829;BME280;396;52.558;13.188;2022-10-16T12:35:32;101177.03;;;29.23;40.16
829;BME280;396;52.558;13.188;2022-10-16T12:38:07;101181.31;;;28.89;40.93
829;BME280;396;52.558;13.188;2022-10-16T12:40:38;101178.84;;;28.50;41.06
829;BME280;396;52.558;13.188;2022-10-16T12:43:34;101181.47;;;28.16;41.01
829;BME280;396;52.558;13.188;2022-10-16T12:46:02;101186.72;;;28.00;41.67
829;BME280;396;52.558;13.188;2022-10-16T12:48:29;101189.06;;;28.08;40.45
829;BME280;396;52.558;13.188;2022-10-16T12:50:56;101186.16;;;28.26;39.30
829;BME280;396;52.558;13.188;2022-10-16T12:53:25;101182.25;;;28.16;41.02
829;BME280;396;52.558;13.188;2022-10-16T12:56:02;101191.97;;;28.53;39.98
829;BME280;396;52.558;13.188;2022-10-16T12:58:51;101191.63;;;27.63;42.10
829;BME280;396;52.558;13.188;2022-10-16T13:01:32;101197.53;;;27.83;41.18
829;BME280;396;52.558;13.188;2022-10-16T13:04:22;101202.75;;;27.74;41.29
829;BME280;396;52.558;13.188;2022-10-16T13:06:58;101204.13;;;28.18;41.29
829;BME280;396;52.558;13.188;2022-10-16T13:09:47;101196.31;;;27.84;41.08
829;BME280;396;52.558;13.188;2022-10-16T13:12:32;101208.66;;;27.83;41.38
829;BME280;396;52.558;13.188;2022-10-16T13:15:27;101212.28;;;27.62;41.72
829;BME280;396;52.558;13.188;2022-10-16T13:18:03;101211.22;;;27.17;41.76
829;BME280;396;52.558;13.188;2022-10-16T13:20:46;101218.16;;;28.00;41.65
829;BME280;396;52.558;13.188;2022-10-16T13:23:23;101223.13;;;28.41;40.23
829;BME280;396;52.558;13.188;2022-10-16T13:26:06;101235.09;;;28.38;39.38
829;BME280;396;52.558;13.188;2022-10-16T13:28:37;101229.09;;;27.27;40.14
829;BME280;396;52.558;13.188;2022-10-16T13:31:14;101221.03;;;26.22;41.92